Time;durP1;ratioP1;P1;durP2;ratioP2;P2;SDS_P1;SDS_P2;PMS_P1;PMS_P2;Temp;Humidity;BMP_temperature;BMP_pressure;BME280_temperature;BME280_humidity;BME280_pressure;Samples;Min_cycle;Max_cycle;Signal;HPM_P1;HPM_P2
2021/01/30 00:00:42;;;;;;;1.30;0.90;;;;;;;;;;5068871;28;20210;-76
2021/01/30 00:03:46;;;;;;;1.03;0.80;;;;;;;;;;5073014;28;20218;-74
2021/01/30 00:06:51;;;;;;;1.03;0.70;;;;;;;;;;5073586;28;20209;-73
2021/01/30 00:09:55;;;;;;;2.43;0.93;;;;;;;;;;5086854;28;20214;-71
2021/01/30 00:13:01;;;;;;;1.00;0.90;;;;;;;;;;5084675;28;20225;-74
2021/01/30 00:16:06;;;;;;;2.27;0.90;;;;;;;;;;5065820;28;20225;-74
2021/01/30 00:19:10;;;;;;;1.87;0.80;;;;;;;;;;5070122;28;20206;-72
2021/01/30 00:22:16;;;;;;;2.73;0.83;;;;;;;;;;5072283;28;20230;-72
2021/01/30 00:25:22;;;;;;;3.50;1.07;;;;;;;;;;5071638;28;20198;-72
2021/01/30 00:28:27;;;;;;;1.30;1.00;;;;;;;;;;5071647;28;20691;-72
2021/01/30 00:31:32;;;;;;;2.87;1.00;;;;;;;;;;5071346;28;20266;-73
2021/01/30 00:34:38;;;;;;;2.33;1.00;;;;;;;;;;5066945;28;20246;-73
2021/01/30 00:37:43;;;;;;;1.37;0.80;;;;;;;;;;5071117;28;20241;-72
2021/01/30 00:40:48;;;;;;;2.73;1.10;;;;;;;;;;5072417;28;20229;-72
2021/01/30 00:43:53;;;;;;;1.03;0.90;;;;;;;;;;5071353;28;20241;-72
2021/01/30 00:46:58;;;;;;;2.03;1.00;;;;;;;;;;5070948;28;20640;-73
2021/01/30 00:50:04;;;;;;;1.60;0.90;;;;;;;;;;5070886;28;20272;-72
2021/01/30 00:53:09;;;;;;;1.77;0.90;;;;;;;;;;5068506;28;20597;-72
2021/01/30 00:56:22;;;;;;;1.00;0.90;;;;;;;;;;5070895;28;20794;-72
2021/01/30 00:59:27;;;;;;;1.10;0.90;;;;;;;;;;5070533;28;20190;-72
2021/01/30 01:02:32;;;;;;;1.90;0.80;;;;;;;;;;5070547;28;20234;-72
2021/01/30 01:05:37;;;;;;;0.93;0.83;;;;;;;;;;5070976;28;20255;-71
2021/01/30 01:08:42;;;;;;;1.30;0.70;;;;;;;;;;5064244;28;20276;-72
2021/01/30 01:11:48;;;;;;;3.03;1.00;;;;;;;;;;5067854;28;20269;-72
2021/01/30 01:14:54;;;;;;;1.37;0.80;;;;;;;;;;5067730;28;20776;-72
2021/01/30 01:17:58;;;;;;;1.30;0.80;;;;;;;;;;5063254;28;20213;-72
2021/01/30 01:21:03;;;;;;;2.83;0.80;;;;;;;;;;5069863;28;20238;-72
2021/01/30 01:24:08;;;;;;;0.70;0.70;;;;;;;;;;5071069;28;20604;-72
2021/01/30 01:27:13;;;;;;;1.10;0.83;;;;;;;;;;5069515;28;20293;-72
2021/01/30 01:30:19;;;;;;;0.63;0.63;;;;;;;;;;5070580;28;20198;-72
2021/01/30 01:33:24;;;;;;;1.93;0.73;;;;;;;;;;5070986;28;20258;-72
2021/01/30 01:36:28;;;;;;;1.20;0.83;;;;;;;;;;5071155;28;20206;-72
2021/01/30 01:39:34;;;;;;;1.70;0.80;;;;;;;;;;5070667;28;20213;-72
2021/01/30 01:42:39;;;;;;;1.50;0.77;;;;;;;;;;5070337;28;20226;-72
2021/01/30 01:45:47;;;;;;;1.67;0.70;;;;;;;;;;5070618;28;20785;-73
2021/01/30 01:48:57;;;;;;;1.07;0.60;;;;;;;;;;5070322;28;20210;-72
2021/01/30 01:52:04;;;;;;;2.97;0.70;;;;;;;;;;5069885;28;20280;-72
2021/01/30 01:55:10;;;;;;;0.90;0.60;;;;;;;;;;5064182;28;20229;-73
2021/01/30 01:58:17;;;;;;;1.67;0.90;;;;;;;;;;5070936;28;20202;-73
2021/01/30 02:01:23;;;;;;;1.07;0.60;;;;;;;;;;5068241;28;20207;-75
2021/01/30 02:04:28;;;;;;;1.57;0.70;;;;;;;;;;5070188;28;20210;-74
2021/01/30 02:07:34;;;;;;;1.87;0.80;;;;;;;;;;5070982;28;20221;-74
2021/01/30 02:10:40;;;;;;;1.93;0.80;;;;;;;;;;5068889;28;20640;-75
2021/01/30 02:13:47;;;;;;;1.00;0.60;;;;;;;;;;5067551;28;20230;-75
2021/01/30 02:16:55;;;;;;;3.13;1.50;;;;;;;;;;5070139;28;20289;-75
2021/01/30 02:20:18;;;;;;;2.30;0.70;;;;;;;;;;5070053;28;20206;-75
2021/01/30 02:23:40;;;;;;;0.90;0.60;;;;;;;;;;5067942;28;20356;-75
2021/01/30 02:26:57;;;;;;;0.77;0.50;;;;;;;;;;5066047;28;20797;-74
2021/01/30 02:30:21;;;;;;;4.83;0.70;;;;;;;;;;5069876;28;20218;-75
2021/01/30 02:33:40;;;;;;;0.80;0.57;;;;;;;;;;5069986;28;20316;-75
2021/01/30 02:36:50;;;;;;;0.70;0.67;;;;;;;;;;5063263;28;20693;-74
2021/01/30 02:39:59;;;;;;;1.23;0.60;;;;;;;;;;5072910;28;20238;-75
2021/01/30 02:43:06;;;;;;;1.97;0.90;;;;;;;;;;5069591;28;20306;-74
2021/01/30 02:46:12;;;;;;;2.00;0.80;;;;;;;;;;5069739;28;20245;-74
2021/01/30 02:49:20;;;;;;;1.37;0.73;;;;;;;;;;5074095;28;20278;-74
2021/01/30 02:52:27;;;;;;;0.90;0.80;;;;;;;;;;5068692;28;20229;-74
2021/01/30 02:55:33;;;;;;;1.33;0.80;;;;;;;;;;5073967;28;20209;-74
2021/01/30 02:58:41;;;;;;;2.60;0.80;;;;;;;;;;5065051;28;20229;-75
2021/01/30 03:01:46;;;;;;;2.40;0.87;;;;;;;;;;5073518;28;20828;-74
2021/01/30 03:04:51;;;;;;;1.37;0.80;;;;;;;;;;5073315;28;20230;-74
2021/01/30 03:08:02;;;;;;;1.57;0.73;;;;;;;;;;5070304;28;20214;-75
2021/01/30 03:11:09;;;;;;;0.83;0.70;;;;;;;;;;5065297;28;20252;-74
2021/01/30 03:14:17;;;;;;;3.37;0.70;;;;;;;;;;5072830;28;20222;-74
2021/01/30 03:17:22;;;;;;;1.23;0.60;;;;;;;;;;5068520;28;20209;-74
2021/01/30 03:20:28;;;;;;;1.23;0.60;;;;;;;;;;5071075;28;20203;-74
2021/01/30 03:23:34;;;;;;;1.47;0.60;;;;;;;;;;5072817;28;20250;-74
2021/01/30 03:26:40;;;;;;;2.13;0.70;;;;;;;;;;5071934;28;20260;-74
2021/01/30 03:29:45;;;;;;;2.47;0.70;;;;;;;;;;5072601;28;20264;-74
2021/01/30 03:32:50;;;;;;;1.23;0.90;;;;;;;;;;5072133;28;20718;-74
2021/01/30 03:35:54;;;;;;;1.60;0.80;;;;;;;;;;5072347;28;20327;-75
2021/01/30 03:39:00;;;;;;;1.40;0.80;;;;;;;;;;5068208;28;20264;-74
2021/01/30 03:42:05;;;;;;;0.67;0.50;;;;;;;;;;5072134;28;20234;-75
2021/01/30 03:45:11;;;;;;;1.83;0.70;;;;;;;;;;5072032;28;20230;-74
2021/01/30 03:48:16;;;;;;;1.30;0.70;;;;;;;;;;5071667;28;20234;-74
2021/01/30 03:51:20;;;;;;;1.10;0.60;;;;;;;;;;5073511;28;20210;-74
2021/01/30 03:54:26;;;;;;;1.30;0.80;;;;;;;;;;5079646;28;20202;-75
2021/01/30 03:57:31;;;;;;;0.97;0.73;;;;;;;;;;5065238;28;20232;-74
2021/01/30 04:00:36;;;;;;;1.47;0.80;;;;;;;;;;5070426;28;20210;-74
2021/01/30 04:03:41;;;;;;;1.17;0.80;;;;;;;;;;5071950;28;20265;-74
2021/01/30 04:06:47;;;;;;;0.97;0.70;;;;;;;;;;5073867;28;20199;-77
2021/01/30 04:09:52;;;;;;;3.30;1.10;;;;;;;;;;5060211;28;20202;-78
2021/01/30 04:12:57;;;;;;;1.73;0.80;;;;;;;;;;5073255;28;20225;-77
2021/01/30 04:16:06;;;;;;;1.57;0.53;;;;;;;;;;5067708;28;20225;-75
2021/01/30 04:19:11;;;;;;;2.67;0.80;;;;;;;;;;5065573;28;20727;-75
2021/01/30 04:22:16;;;;;;;2.20;0.83;;;;;;;;;;5066623;28;20226;-72
2021/01/30 04:25:22;;;;;;;0.90;0.70;;;;;;;;;;5072516;28;20727;-78
2021/01/30 04:28:27;;;;;;;4.70;1.47;;;;;;;;;;5078505;28;20739;-78
2021/01/30 04:31:31;;;;;;;2.00;0.90;;;;;;;;;;5078626;28;20589;-78
2021/01/30 04:34:36;;;;;;;1.20;0.70;;;;;;;;;;5052343;28;20223;-78
2021/01/30 04:37:41;;;;;;;1.90;0.90;;;;;;;;;;5060397;28;20221;-78
2021/01/30 04:40:47;;;;;;;1.77;0.80;;;;;;;;;;5066725;28;20206;-78
2021/01/30 04:43:58;;;;;;;2.97;1.00;;;;;;;;;;5071849;28;20218;-78
2021/01/30 04:47:10;;;;;;;1.93;0.77;;;;;;;;;;5071967;28;20195;-78
2021/01/30 04:50:18;;;;;;;0.90;0.67;;;;;;;;;;5071732;28;20734;-78
2021/01/30 04:53:34;;;;;;;1.47;0.70;;;;;;;;;;5071587;28;20356;-78
2021/01/30 04:56:47;;;;;;;2.07;0.60;;;;;;;;;;5071179;28;20233;-72
2021/01/30 04:59:59;;;;;;;3.40;0.70;;;;;;;;;;5070717;28;20201;-72
2021/01/30 05:03:11;;;;;;;1.17;0.80;;;;;;;;;;5070801;28;20218;-72
2021/01/30 05:06:17;;;;;;;1.33;0.70;;;;;;;;;;5068188;28;20621;-72
2021/01/30 05:09:29;;;;;;;3.73;0.80;;;;;;;;;;5070953;28;20217;-72
2021/01/30 05:12:40;;;;;;;0.93;0.70;;;;;;;;;;5070808;28;20337;-72
2021/01/30 05:15:46;;;;;;;2.23;0.60;;;;;;;;;;5070943;28;20218;-72
2021/01/30 05:18:52;;;;;;;0.90;0.60;;;;;;;;;;5070671;28;20602;-72
2021/01/30 05:22:00;;;;;;;1.60;0.70;;;;;;;;;;5070484;28;20586;-73
2021/01/30 05:25:05;;;;;;;1.13;0.70;;;;;;;;;;5070094;28;20611;-72
2021/01/30 05:28:16;;;;;;;1.83;0.67;;;;;;;;;;5070983;28;20247;-72
2021/01/30 05:31:27;;;;;;;1.33;0.60;;;;;;;;;;5070591;28;20272;-72
2021/01/30 05:34:36;;;;;;;1.27;0.70;;;;;;;;;;5070702;28;20217;-72
2021/01/30 05:37:43;;;;;;;3.53;0.77;;;;;;;;;;5063786;28;20650;-72
2021/01/30 05:40:48;;;;;;;1.83;0.70;;;;;;;;;;5056929;28;20209;-72
2021/01/30 05:43:56;;;;;;;2.00;0.60;;;;;;;;;;5070544;28;20325;-72
2021/01/30 05:47:02;;;;;;;2.00;0.50;;;;;;;;;;5070448;28;20249;-72
2021/01/30 05:50:13;;;;;;;1.17;0.60;;;;;;;;;;5062220;28;20198;-72
2021/01/30 05:53:21;;;;;;;0.97;0.70;;;;;;;;;;5069578;28;20261;-72
2021/01/30 05:56:26;;;;;;;1.03;0.53;;;;;;;;;;5070742;28;20704;-72
2021/01/30 05:59:32;;;;;;;1.87;0.80;;;;;;;;;;5071308;28;20206;-71
2021/01/30 06:02:37;;;;;;;1.83;0.60;;;;;;;;;;5069963;28;20665;-72
2021/01/30 06:05:42;;;;;;;1.80;0.50;;;;;;;;;;5070023;28;20197;-74
2021/01/30 06:08:56;;;;;;;3.00;0.60;;;;;;;;;;5070289;28;20217;-74
2021/01/30 06:12:02;;;;;;;0.60;0.50;;;;;;;;;;5058302;28;20609;-74
2021/01/30 06:15:11;;;;;;;2.80;1.07;;;;;;;;;;5074154;28;20294;-74
2021/01/30 06:18:25;;;;;;;1.60;0.50;;;;;;;;;;5072206;28;20257;-74
2021/01/30 06:21:30;;;;;;;0.83;0.40;;;;;;;;;;5070970;28;20198;-74
2021/01/30 06:24:44;;;;;;;1.27;0.50;;;;;;;;;;5074307;28;20291;-78
2021/01/30 06:27:49;;;;;;;2.83;0.50;;;;;;;;;;5054521;28;20210;-77
2021/01/30 06:30:57;;;;;;;0.93;0.47;;;;;;;;;;5067073;28;20304;-78
2021/01/30 06:34:03;;;;;;;0.80;0.60;;;;;;;;;;5059184;28;20310;-78
2021/01/30 06:37:10;;;;;;;1.97;0.50;;;;;;;;;;5071000;28;20206;-78
2021/01/30 06:40:17;;;;;;;1.13;0.60;;;;;;;;;;5074573;28;20202;-78
2021/01/30 06:43:28;;;;;;;1.73;0.83;;;;;;;;;;5074278;28;20233;-78
2021/01/30 06:46:34;;;;;;;1.73;0.50;;;;;;;;;;5065549;28;20272;-78
2021/01/30 06:49:40;;;;;;;2.37;0.60;;;;;;;;;;5066434;28;20337;-78
2021/01/30 06:52:44;;;;;;;3.77;0.87;;;;;;;;;;5073909;28;20237;-78
2021/01/30 06:55:49;;;;;;;2.00;0.70;;;;;;;;;;5072593;28;20227;-78
2021/01/30 06:59:02;;;;;;;1.47;0.60;;;;;;;;;;5073901;28;20214;-78
2021/01/30 07:02:16;;;;;;;1.93;0.80;;;;;;;;;;5073960;28;20821;-78
2021/01/30 07:05:26;;;;;;;1.27;0.90;;;;;;;;;;5069904;28;20284;-78
2021/01/30 07:08:51;;;;;;;2.77;1.17;;;;;;;;;;5070560;28;20237;-79
2021/01/30 07:12:00;;;;;;;2.73;0.80;;;;;;;;;;5073942;28;20207;-78
2021/01/30 07:15:20;;;;;;;1.50;0.80;;;;;;;;;;5075392;28;20256;-78
2021/01/30 07:18:29;;;;;;;2.37;0.70;;;;;;;;;;5089247;28;20675;-78
2021/01/30 07:21:36;;;;;;;2.93;0.60;;;;;;;;;;5088943;28;20265;-78
2021/01/30 07:24:44;;;;;;;3.37;1.07;;;;;;;;;;5074433;28;20217;-79
2021/01/30 07:27:52;;;;;;;4.07;1.20;;;;;;;;;;5073920;28;20640;-78
2021/01/30 07:30:59;;;;;;;4.07;1.30;;;;;;;;;;5074098;28;20202;-79
2021/01/30 07:34:07;;;;;;;4.90;0.90;;;;;;;;;;5073945;28;20258;-78
2021/01/30 07:37:15;;;;;;;3.27;0.70;;;;;;;;;;5073437;28;20218;-78
2021/01/30 07:40:21;;;;;;;16.87;4.87;;;;;;;;;;5073331;28;20263;-78
2021/01/30 07:43:27;;;;;;;4.60;1.03;;;;;;;;;;5074135;28;20230;-79
2021/01/30 07:46:34;;;;;;;6.13;0.83;;;;;;;;;;5074012;28;20198;-78
2021/01/30 07:49:41;;;;;;;5.70;1.30;;;;;;;;;;5073301;28;20290;-78
2021/01/30 07:52:51;;;;;;;2.67;0.80;;;;;;;;;;5073051;28;20319;-78
2021/01/30 07:56:02;;;;;;;3.17;0.90;;;;;;;;;;5065783;28;20202;-78
2021/01/30 07:59:18;;;;;;;5.43;1.10;;;;;;;;;;5062527;28;20282;-78
2021/01/30 08:02:41;;;;;;;2.23;0.80;;;;;;;;;;5083682;28;20301;-77
2021/01/30 08:05:53;;;;;;;3.23;0.90;;;;;;;;;;5083736;28;20210;-78
2021/01/30 08:09:02;;;;;;;2.07;1.10;;;;;;;;;;5083033;28;20674;-77
2021/01/30 08:12:13;;;;;;;3.00;0.73;;;;;;;;;;5078057;28;20310;-76
2021/01/30 08:15:23;;;;;;;3.37;0.97;;;;;;;;;;5079294;28;20303;-76
2021/01/30 08:18:33;;;;;;;3.73;0.87;;;;;;;;;;5072540;28;20217;-76
2021/01/30 08:21:43;;;;;;;4.63;1.17;;;;;;;;;;5072735;28;20206;-72
2021/01/30 08:24:51;;;;;;;7.17;0.93;;;;;;;;;;5071674;28;20704;-72
2021/01/30 08:28:00;;;;;;;3.17;0.80;;;;;;;;;;5065695;28;20228;-78
2021/01/30 08:31:05;;;;;;;3.80;0.90;;;;;;;;;;5072985;28;20198;-78
2021/01/30 08:34:11;;;;;;;4.37;1.20;;;;;;;;;;5071807;28;20249;-76
2021/01/30 08:37:36;;;;;;;6.77;1.10;;;;;;;;;;5071409;28;20202;-76
2021/01/30 08:40:46;;;;;;;7.27;1.50;;;;;;;;;;5071510;28;20221;-76
2021/01/30 08:43:53;;;;;;;5.33;1.47;;;;;;;;;;5071481;28;20702;-76
2021/01/30 08:47:16;;;;;;;6.37;1.37;;;;;;;;;;5069437;28;20210;-76
2021/01/30 08:50:36;;;;;;;8.80;1.03;;;;;;;;;;5070772;28;20256;-76
2021/01/30 08:53:41;;;;;;;5.90;1.77;;;;;;;;;;5073921;28;20252;-76
2021/01/30 08:56:48;;;;;;;6.10;1.20;;;;;;;;;;5069732;28;20686;-76
2021/01/30 08:59:53;;;;;;;4.17;1.00;;;;;;;;;;5065040;28;20206;-76
2021/01/30 09:02:59;;;;;;;4.63;1.43;;;;;;;;;;5065876;28;20252;-76
2021/01/30 09:06:04;;;;;;;6.00;1.23;;;;;;;;;;5066442;28;20264;-76
2021/01/30 09:09:11;;;;;;;3.23;1.00;;;;;;;;;;5063254;28;20194;-76
2021/01/30 09:12:37;;;;;;;5.53;1.33;;;;;;;;;;5060849;28;20226;-76
2021/01/30 09:15:55;;;;;;;4.43;1.10;;;;;;;;;;5071640;28;20199;-76
2021/01/30 09:19:02;;;;;;;5.63;1.50;;;;;;;;;;5071308;28;20202;-76
2021/01/30 09:22:11;;;;;;;5.43;1.30;;;;;;;;;;5067737;28;20229;-76
2021/01/30 09:25:20;;;;;;;6.80;1.27;;;;;;;;;;5069308;28;20280;-76
2021/01/30 09:28:26;;;;;;;7.13;1.27;;;;;;;;;;5071672;28;20581;-79
2021/01/30 09:31:32;;;;;;;5.10;1.23;;;;;;;;;;5071929;28;20283;-79
2021/01/30 09:34:45;;;;;;;7.70;1.30;;;;;;;;;;5075502;28;20565;-79
2021/01/30 09:37:50;;;;;;;5.53;1.20;;;;;;;;;;5071262;28;20632;-80
2021/01/30 09:41:14;;;;;;;10.23;1.47;;;;;;;;;;5071028;28;20206;-80
2021/01/30 09:44:20;;;;;;;6.83;1.60;;;;;;;;;;5071111;28;20298;-80
2021/01/30 09:47:26;;;;;;;6.87;1.20;;;;;;;;;;5072468;28;20206;-79
2021/01/30 09:50:33;;;;;;;6.07;1.20;;;;;;;;;;5070986;28;20210;-79
2021/01/30 09:53:41;;;;;;;13.43;1.47;;;;;;;;;;5070807;28;20314;-80
2021/01/30 09:56:46;;;;;;;6.47;1.40;;;;;;;;;;5060557;28;20249;-79
2021/01/30 09:59:56;;;;;;;8.00;1.47;;;;;;;;;;5076067;28;20194;-79
2021/01/30 10:03:08;;;;;;;7.03;1.50;;;;;;;;;;5075508;28;20221;-78
2021/01/30 10:06:16;;;;;;;6.13;1.30;;;;;;;;;;5074948;28;20755;-79
2021/01/30 10:09:22;;;;;;;10.93;1.87;;;;;;;;;;5074829;28;20244;-79
2021/01/30 10:12:27;;;;;;;6.77;1.50;;;;;;;;;;5066046;28;20234;-74
2021/01/30 10:15:35;;;;;;;4.03;1.13;;;;;;;;;;5074112;28;20205;-73
2021/01/30 10:18:44;;;;;;;6.97;1.40;;;;;;;;;;5074211;28;20211;-72
2021/01/30 10:21:48;;;;;;;7.73;1.50;;;;;;;;;;5074160;28;20288;-73
2021/01/30 10:25:00;;;;;;;6.87;1.40;;;;;;;;;;5074277;28;20218;-73
2021/01/30 10:28:06;;;;;;;8.37;1.40;;;;;;;;;;5071716;28;20238;-74
2021/01/30 10:31:10;;;;;;;5.70;1.30;;;;;;;;;;5055724;28;20336;-73
2021/01/30 10:34:20;;;;;;;7.87;1.60;;;;;;;;;;5071039;28;20199;-74
2021/01/30 10:37:29;;;;;;;11.43;1.50;;;;;;;;;;5057891;28;20710;-73
2021/01/30 10:40:35;;;;;;;10.73;1.80;;;;;;;;;;5066334;28;20280;-74
2021/01/30 10:43:42;;;;;;;12.20;1.43;;;;;;;;;;5073546;28;20222;-73
2021/01/30 10:46:47;;;;;;;8.23;1.50;;;;;;;;;;5073646;28;20210;-74
2021/01/30 10:50:02;;;;;;;8.23;1.40;;;;;;;;;;5070958;28;20209;-72
2021/01/30 10:53:16;;;;;;;13.70;2.23;;;;;;;;;;5069992;28;20321;-73
2021/01/30 10:56:23;;;;;;;10.23;1.67;;;;;;;;;;5062875;28;20297;-73
2021/01/30 10:59:29;;;;;;;6.57;1.27;;;;;;;;;;5073843;28;20198;-74
2021/01/30 11:02:43;;;;;;;9.13;1.50;;;;;;;;;;5073461;28;20269;-73
2021/01/30 11:05:49;;;;;;;7.00;1.27;;;;;;;;;;5056250;28;20222;-74
2021/01/30 11:08:54;;;;;;;9.67;2.00;;;;;;;;;;5058386;28;20210;-73
2021/01/30 11:12:16;;;;;;;9.73;2.87;;;;;;;;;;5073236;28;20685;-73
2021/01/30 11:15:22;;;;;;;12.60;2.10;;;;;;;;;;5072322;28;20295;-73
2021/01/30 11:18:34;;;;;;;5.47;1.37;;;;;;;;;;5072871;28;20199;-74
2021/01/30 11:21:40;;;;;;;11.00;2.13;;;;;;;;;;5073605;28;20241;-74
2021/01/30 11:24:48;;;;;;;9.57;1.80;;;;;;;;;;5072502;28;20598;-72
2021/01/30 11:27:54;;;;;;;6.70;1.53;;;;;;;;;;5080946;28;20622;-72
2021/01/30 11:30:58;;;;;;;6.80;1.90;;;;;;;;;;5071112;28;20261;-71
2021/01/30 11:34:04;;;;;;;10.50;1.87;;;;;;;;;;5071172;28;20214;-73
2021/01/30 11:37:09;;;;;;;8.03;2.03;;;;;;;;;;5072279;28;20198;-73
2021/01/30 11:40:16;;;;;;;8.77;2.10;;;;;;;;;;5064748;28;20218;-73
2021/01/30 11:43:21;;;;;;;8.07;1.63;;;;;;;;;;5073234;28;20265;-73
2021/01/30 11:46:26;;;;;;;6.07;1.50;;;;;;;;;;5072577;28;20198;-72
2021/01/30 11:49:31;;;;;;;9.37;2.07;;;;;;;;;;5066278;28;20255;-72
2021/01/30 11:52:37;;;;;;;8.87;1.77;;;;;;;;;;5071280;28;20333;-73
2021/01/30 11:55:42;;;;;;;9.77;2.17;;;;;;;;;;5058686;28;20287;-76
2021/01/30 11:58:47;;;;;;;13.03;2.13;;;;;;;;;;5067369;28;20241;-72
2021/01/30 12:01:53;;;;;;;10.20;1.83;;;;;;;;;;5053471;28;20691;-76
2021/01/30 12:04:58;;;;;;;9.03;1.93;;;;;;;;;;5072658;28;20831;-77
2021/01/30 12:08:03;;;;;;;14.03;2.30;;;;;;;;;;5072700;28;20253;-74
2021/01/30 12:11:10;;;;;;;6.93;2.07;;;;;;;;;;5067569;28;20316;-73
2021/01/30 12:14:14;;;;;;;18.93;2.30;;;;;;;;;;5074329;28;20203;-73
2021/01/30 12:17:21;;;;;;;12.83;2.00;;;;;;;;;;5072587;28;20726;-72
2021/01/30 12:20:28;;;;;;;14.67;3.60;;;;;;;;;;5065545;28;20744;-76
2021/01/30 12:23:33;;;;;;;10.30;1.87;;;;;;;;;;5069524;28;20287;-74
2021/01/30 12:26:41;;;;;;;6.97;1.80;;;;;;;;;;5059167;28;20194;-78
2021/01/30 12:29:46;;;;;;;13.67;2.50;;;;;;;;;;5067111;28;20213;-76
2021/01/30 12:32:51;;;;;;;8.23;1.73;;;;;;;;;;5071320;28;20597;-73
2021/01/30 12:35:57;;;;;;;12.47;1.87;;;;;;;;;;5070797;28;20211;-77
2021/01/30 12:39:02;;;;;;;11.37;2.30;;;;;;;;;;5108997;28;21011;-72
2021/01/30 12:42:07;;;;;;;10.40;2.30;;;;;;;;;;5062519;28;20276;-72
2021/01/30 12:45:13;;;;;;;13.20;2.20;;;;;;;;;;5072912;28;20233;-77
2021/01/30 12:48:18;;;;;;;13.27;3.03;;;;;;;;;;5058977;28;20580;-73
2021/01/30 12:51:23;;;;;;;7.57;1.70;;;;;;;;;;5062776;28;20210;-77
2021/01/30 12:54:28;;;;;;;7.63;1.60;;;;;;;;;;5067114;28;20214;-77
2021/01/30 12:57:33;;;;;;;6.80;1.30;;;;;;;;;;5068594;28;20225;-74
2021/01/30 13:00:38;;;;;;;10.40;1.97;;;;;;;;;;5057286;28;20214;-74
2021/01/30 13:03:43;;;;;;;5.93;1.33;;;;;;;;;;5071666;28;20241;-77
2021/01/30 13:06:49;;;;;;;6.70;1.70;;;;;;;;;;5072328;28;20727;-77
2021/01/30 13:09:54;;;;;;;9.23;1.53;;;;;;;;;;5062937;28;20230;-77
2021/01/30 13:12:59;;;;;;;9.90;1.50;;;;;;;;;;5068183;28;20727;-77
2021/01/30 13:16:05;;;;;;;8.70;1.50;;;;;;;;;;5077325;28;20222;-76
2021/01/30 13:19:10;;;;;;;5.47;1.60;;;;;;;;;;5078737;28;20286;-77
2021/01/30 13:22:15;;;;;;;4.73;1.27;;;;;;;;;;5081268;28;20233;-77
2021/01/30 13:25:20;;;;;;;6.33;1.33;;;;;;;;;;5071005;28;20225;-78
2021/01/30 13:28:25;;;;;;;9.50;2.33;;;;;;;;;;5062067;28;20276;-77
2021/01/30 13:31:29;;;;;;;6.53;2.27;;;;;;;;;;5069385;28;20841;-76
2021/01/30 13:34:35;;;;;;;7.63;2.00;;;;;;;;;;5090503;28;20225;-76
2021/01/30 13:37:40;;;;;;;7.67;2.10;;;;;;;;;;5051673;28;20214;-76
2021/01/30 13:40:45;;;;;;;6.30;1.70;;;;;;;;;;5061052;28;20303;-73
2021/01/30 13:43:50;;;;;;;5.93;1.33;;;;;;;;;;5050114;28;20234;-73
2021/01/30 13:46:54;;;;;;;5.17;1.47;;;;;;;;;;5050254;28;20210;-73
2021/01/30 13:49:59;;;;;;;2.90;1.10;;;;;;;;;;5050290;28;20202;-73
2021/01/30 13:53:04;;;;;;;2.83;1.03;;;;;;;;;;5049975;28;20238;-73
2021/01/30 13:56:10;;;;;;;5.10;1.27;;;;;;;;;;5055670;28;20313;-72
2021/01/30 13:59:15;;;;;;;7.27;1.33;;;;;;;;;;5066200;28;20205;-74
2021/01/30 14:02:19;;;;;;;3.63;1.20;;;;;;;;;;5069824;28;20729;-73
2021/01/30 14:05:26;;;;;;;4.93;1.33;;;;;;;;;;5064533;28;20245;-74
2021/01/30 14:08:30;;;;;;;5.17;1.33;;;;;;;;;;5066366;28;20298;-72
2021/01/30 14:11:36;;;;;;;6.33;1.60;;;;;;;;;;5060254;28;20316;-72
2021/01/30 14:14:40;;;;;;;5.30;1.50;;;;;;;;;;5059698;28;20253;-73
2021/01/30 14:17:45;;;;;;;6.93;1.73;;;;;;;;;;5067499;28;20209;-73
2021/01/30 14:20:50;;;;;;;8.10;1.40;;;;;;;;;;5060839;28;20268;-74
2021/01/30 14:23:55;;;;;;;7.53;1.73;;;;;;;;;;5067628;28;20240;-73
2021/01/30 14:27:00;;;;;;;7.77;2.50;;;;;;;;;;5069590;28;20201;-74
2021/01/30 14:30:05;;;;;;;6.83;2.00;;;;;;;;;;5068789;28;20685;-72
2021/01/30 14:33:10;;;;;;;73.30;4.85;;;;;;;;;;5064722;28;20229;-73
2021/01/30 14:36:15;;;;;;;6.70;1.70;;;;;;;;;;5073621;28;20221;-76
2021/01/30 14:39:19;;;;;;;20.23;2.57;;;;;;;;;;5067947;28;20202;-74
2021/01/30 14:42:25;;;;;;;30.77;3.33;;;;;;;;;;5073534;28;20273;-74
2021/01/30 14:45:29;;;;;;;11.73;2.00;;;;;;;;;;5068706;28;20217;-72
2021/01/30 14:48:33;;;;;;;5.30;1.23;;;;;;;;;;5072969;28;20360;-74
2021/01/30 14:51:38;;;;;;;9.30;1.50;;;;;;;;;;5072617;28;20218;-74
2021/01/30 14:54:43;;;;;;;6.67;1.53;;;;;;;;;;5072734;28;20202;-73
2021/01/30 14:57:48;;;;;;;5.10;1.70;;;;;;;;;;5074117;28;20214;-73
2021/01/30 15:00:52;;;;;;;16.80;1.67;;;;;;;;;;5073578;28;20210;-74
2021/01/30 15:03:57;;;;;;;41.53;3.53;;;;;;;;;;5069109;28;20280;-73
2021/01/30 15:07:02;;;;;;;14.43;3.10;;;;;;;;;;5059918;28;20206;-73
2021/01/30 15:10:06;;;;;;;25.93;2.53;;;;;;;;;;5068955;28;20305;-74
2021/01/30 15:13:16;;;;;;;58.93;4.30;;;;;;;;;;5072471;28;20261;-73
2021/01/30 15:16:20;;;;;;;41.30;2.97;;;;;;;;;;5052408;28;20250;-73
2021/01/30 15:19:25;;;;;;;31.33;2.60;;;;;;;;;;5052665;28;20207;-73
2021/01/30 15:22:29;;;;;;;13.97;3.27;;;;;;;;;;5070929;28;20292;-73
2021/01/30 15:25:34;;;;;;;16.63;2.80;;;;;;;;;;5072194;28;20222;-76
2021/01/30 15:28:39;;;;;;;20.27;2.80;;;;;;;;;;5063483;28;20728;-72
2021/01/30 15:31:44;;;;;;;21.83;3.37;;;;;;;;;;5072792;28;20357;-71
2021/01/30 15:34:48;;;;;;;13.20;2.47;;;;;;;;;;5072019;28;20264;-71
2021/01/30 15:37:55;;;;;;;5.57;1.90;;;;;;;;;;5070697;28;20709;-73
2021/01/30 15:41:00;;;;;;;8.47;2.00;;;;;;;;;;5072081;28;20360;-72
2021/01/30 15:44:06;;;;;;;8.73;2.20;;;;;;;;;;5071800;28;20841;-73
2021/01/30 15:47:11;;;;;;;7.03;1.77;;;;;;;;;;5069702;28;20209;-72
2021/01/30 15:50:19;;;;;;;13.03;2.17;;;;;;;;;;5074196;28;20240;-76
2021/01/30 15:53:24;;;;;;;64.27;5.13;;;;;;;;;;5072001;28;20238;-70
2021/01/30 15:56:28;;;;;;;19.43;2.50;;;;;;;;;;5072566;28;20234;-73
2021/01/30 15:59:34;;;;;;;16.90;2.87;;;;;;;;;;5072441;28;20702;-77
2021/01/30 16:02:43;;;;;;;9.83;2.47;;;;;;;;;;5071726;28;20288;-76
2021/01/30 16:05:49;;;;;;;11.73;2.90;;;;;;;;;;5071918;28;20230;-75
2021/01/30 16:08:53;;;;;;;9.83;2.37;;;;;;;;;;5072579;28;20197;-76
2021/01/30 16:12:00;;;;;;;41.33;3.80;;;;;;;;;;5070980;28;20344;-71
2021/01/30 16:15:06;;;;;;;105.13;7.97;;;;;;;;;;5069942;28;20289;-71
2021/01/30 16:18:10;;;;;;;10.70;3.13;;;;;;;;;;5071620;28;20678;-71
2021/01/30 16:21:15;;;;;;;80.57;4.90;;;;;;;;;;5071367;28;20210;-71
2021/01/30 16:24:20;;;;;;;14.00;3.40;;;;;;;;;;5071544;28;20210;-71
2021/01/30 16:27:24;;;;;;;12.40;3.17;;;;;;;;;;5072442;28;20210;-71
2021/01/30 16:30:30;;;;;;;16.87;3.97;;;;;;;;;;5071144;28;20614;-70
2021/01/30 16:33:35;;;;;;;28.13;6.90;;;;;;;;;;5071237;28;20264;-70
2021/01/30 16:36:40;;;;;;;34.03;7.40;;;;;;;;;;5072451;28;20293;-70
2021/01/30 16:39:45;;;;;;;35.80;6.90;;;;;;;;;;5076226;28;20732;-71
2021/01/30 16:42:51;;;;;;;14.63;4.13;;;;;;;;;;5074680;28;20222;-71
2021/01/30 16:45:57;;;;;;;14.47;3.13;;;;;;;;;;5073923;28;20253;-71
2021/01/30 16:49:01;;;;;;;38.07;5.13;;;;;;;;;;5080848;28;20295;-71
2021/01/30 16:52:06;;;;;;;11.63;3.40;;;;;;;;;;5073350;28;20253;-71
2021/01/30 16:55:11;;;;;;;8.40;3.03;;;;;;;;;;5071121;28;20229;-70
2021/01/30 16:58:17;;;;;;;17.90;3.40;;;;;;;;;;5070546;28;20232;-71
2021/01/30 17:01:23;;;;;;;8.33;3.07;;;;;;;;;;5070972;28;20237;-70
2021/01/30 17:04:27;;;;;;;8.60;3.10;;;;;;;;;;5070800;28;20272;-70
2021/01/30 17:07:32;;;;;;;8.70;3.27;;;;;;;;;;5070744;28;20248;-71
2021/01/30 17:10:37;;;;;;;10.13;3.40;;;;;;;;;;5069728;28;20249;-71
2021/01/30 17:13:41;;;;;;;11.47;3.97;;;;;;;;;;5079047;28;20306;-71
2021/01/30 17:16:56;;;;;;;12.43;3.83;;;;;;;;;;5070575;28;20206;-71
2021/01/30 17:20:10;;;;;;;20.23;6.67;;;;;;;;;;5070415;28;20241;-71
2021/01/30 17:23:19;;;;;;;8.23;3.60;;;;;;;;;;5064123;28;20222;-71
2021/01/30 17:26:24;;;;;;;7.53;3.40;;;;;;;;;;5061790;28;20275;-70
2021/01/30 17:29:29;;;;;;;7.57;3.53;;;;;;;;;;5069464;28;20213;-71
2021/01/30 17:32:34;;;;;;;18.23;4.00;;;;;;;;;;5069436;28;20237;-70
2021/01/30 17:35:39;;;;;;;7.33;3.30;;;;;;;;;;5069848;28;20266;-70
2021/01/30 17:38:45;;;;;;;10.17;3.30;;;;;;;;;;5066533;28;20260;-72
2021/01/30 17:41:49;;;;;;;7.70;3.70;;;;;;;;;;5066664;28;20563;-70
2021/01/30 17:44:54;;;;;;;6.33;3.17;;;;;;;;;;5070012;28;20273;-70
2021/01/30 17:47:59;;;;;;;7.70;3.10;;;;;;;;;;5066635;28;20202;-70
2021/01/30 17:51:06;;;;;;;13.13;4.43;;;;;;;;;;5069422;28;20260;-69
2021/01/30 17:54:10;;;;;;;8.70;3.70;;;;;;;;;;5071777;28;20229;-70
2021/01/30 17:57:15;;;;;;;12.60;5.50;;;;;;;;;;5069081;28;20602;-69
2021/01/30 18:00:22;;;;;;;3.43;2.33;;;;;;;;;;5049572;28;20211;-70
2021/01/30 18:03:27;;;;;;;6.80;3.53;;;;;;;;;;5067237;28;20283;-71
2021/01/30 18:06:32;;;;;;;5.50;2.23;;;;;;;;;;5068846;28;20237;-71
2021/01/30 18:09:36;;;;;;;5.00;2.33;;;;;;;;;;5072029;28;20252;-72
2021/01/30 18:12:41;;;;;;;4.03;1.50;;;;;;;;;;5074345;28;20244;-77
2021/01/30 18:15:46;;;;;;;4.17;2.37;;;;;;;;;;5081066;28;20262;-77
2021/01/30 18:18:52;;;;;;;4.00;2.07;;;;;;;;;;5082614;28;20218;-75
2021/01/30 18:21:56;;;;;;;4.07;2.13;;;;;;;;;;5080147;28;20202;-76
2021/01/30 18:25:01;;;;;;;3.53;2.20;;;;;;;;;;5071827;28;20249;-76
2021/01/30 18:28:06;;;;;;;4.70;2.33;;;;;;;;;;5074361;28;20293;-76
2021/01/30 18:31:11;;;;;;;5.73;2.50;;;;;;;;;;5073160;28;20213;-75
2021/01/30 18:34:17;;;;;;;4.70;2.60;;;;;;;;;;5073724;28;20284;-75
2021/01/30 18:37:22;;;;;;;4.47;2.57;;;;;;;;;;5073781;28;20291;-75